createdAt,value
2022-08-02T00:00:50.761Z,15.07
2022-08-02T00:03:42.674Z,14.94
2022-08-02T00:06:29.429Z,14.88
2022-08-02T00:09:16.340Z,14.85
2022-08-02T00:12:04.735Z,14.83
2022-08-02T00:14:51.599Z,14.82
2022-08-02T00:17:38.347Z,14.82
2022-08-02T00:20:25.157Z,14.82
2022-08-02T00:23:12.050Z,14.79
2022-08-02T00:25:59.102Z,14.79
2022-08-02T00:28:47.211Z,14.76
2022-08-02T00:31:34.153Z,14.64
2022-08-02T00:34:28.593Z,14.75
2022-08-02T00:37:17.030Z,14.73
2022-08-02T00:40:03.594Z,14.74
2022-08-02T00:43:01.878Z,14.77
2022-08-02T00:46:02.389Z,14.77
2022-08-02T00:48:50.520Z,14.72
2022-08-02T00:51:37.119Z,14.77
2022-08-02T00:54:23.759Z,14.65
2022-08-02T00:57:10.483Z,14.58
2022-08-02T00:59:57.394Z,14.50
2022-08-02T01:02:45.898Z,14.40
2022-08-02T01:05:46.962Z,14.36
2022-08-02T01:08:39.918Z,14.32
2022-08-02T01:11:26.885Z,14.29
2022-08-02T01:14:15.839Z,14.21
2022-08-02T01:17:11.654Z,14.10
2022-08-02T01:20:16.219Z,13.93
2022-08-02T01:23:32.669Z,13.84
2022-08-02T01:26:38.705Z,13.80
2022-08-02T01:29:31.580Z,13.77
2022-08-02T01:32:23.240Z,13.76
2022-08-02T01:35:14.872Z,13.77
2022-08-02T01:38:08.748Z,13.81
2022-08-02T01:40:57.749Z,13.75
2022-08-02T01:43:46.372Z,13.69
2022-08-02T01:46:36.680Z,13.71
2022-08-02T01:49:26.216Z,13.68
2022-08-02T01:52:23.407Z,13.60
2022-08-02T01:55:18.668Z,13.53
2022-08-02T01:58:08.345Z,13.45
2022-08-02T02:00:58.716Z,13.30
2022-08-02T02:03:49.792Z,13.26
2022-08-02T02:06:38.395Z,13.20
2022-08-02T02:09:29.606Z,13.09
2022-08-02T02:12:17.949Z,13.06
2022-08-02T02:15:05.901Z,13.17
2022-08-02T02:18:12.877Z,13.17
2022-08-02T02:21:01.641Z,13.23
2022-08-02T02:23:48.558Z,13.24
2022-08-02T02:26:43.518Z,13.33
2022-08-02T02:29:44.559Z,13.50
2022-08-02T02:32:32.357Z,13.55
2022-08-02T02:35:22.561Z,13.57
2022-08-02T02:38:13.539Z,13.58
2022-08-02T02:41:02.898Z,13.58
2022-08-02T02:43:50.725Z,13.66
2022-08-02T02:46:38.041Z,13.59
2022-08-02T02:49:26.467Z,13.57
2022-08-02T02:52:15.901Z,13.57
2022-08-02T02:55:05.129Z,13.61
2022-08-02T02:57:51.792Z,13.63
2022-08-02T03:00:56.989Z,13.66
2022-08-02T03:03:45.856Z,13.72
2022-08-02T03:06:32.776Z,13.77
2022-08-02T03:09:19.547Z,13.81
2022-08-02T03:12:10.716Z,13.85
2022-08-02T03:14:59.498Z,13.85
2022-08-02T03:17:47.487Z,13.85
2022-08-02T03:20:34.089Z,13.81
2022-08-02T03:23:20.854Z,13.77
2022-08-02T03:26:08.693Z,13.73
2022-08-02T03:28:56.748Z,13.70
2022-08-02T03:31:46.770Z,13.66
2022-08-02T03:34:33.366Z,13.62
2022-08-02T03:37:21.140Z,13.56
2022-08-02T03:40:09.818Z,13.51
2022-08-02T03:42:56.932Z,13.49
2022-08-02T03:45:47.830Z,13.50
2022-08-02T03:48:37.075Z,13.44
2022-08-02T03:51:23.883Z,13.45
2022-08-02T03:54:11.085Z,13.51
2022-08-02T03:56:57.962Z,13.53
2022-08-02T03:59:45.936Z,13.44
2022-08-02T04:02:33.861Z,13.47
2022-08-02T04:05:21.253Z,13.42
2022-08-02T04:08:35.708Z,13.42
2022-08-02T04:11:32.327Z,13.45
2022-08-02T04:14:19.501Z,13.47
2022-08-02T04:17:09.675Z,13.54
2022-08-02T04:20:03.344Z,13.57
2022-08-02T04:22:54.032Z,13.63
2022-08-02T04:25:42.568Z,13.64
2022-08-02T04:28:30.505Z,13.70
2022-08-02T04:31:18.897Z,13.79
2022-08-02T04:34:05.953Z,13.91
2022-08-02T04:36:58.210Z,14.13
2022-08-02T04:39:49.979Z,14.31
2022-08-02T04:42:37.426Z,14.46
2022-08-02T04:45:27.091Z,14.53
2022-08-02T04:48:16.026Z,14.60
2022-08-02T04:51:02.896Z,14.62
2022-08-02T04:54:06.265Z,14.71
2022-08-02T04:56:56.801Z,14.79
2022-08-02T04:59:43.631Z,14.88
2022-08-02T05:02:30.374Z,15.00
2022-08-02T05:05:20.056Z,15.14
2022-08-02T05:08:15.724Z,15.18
2022-08-02T05:11:07.321Z,15.28
2022-08-02T05:13:57.705Z,15.49
2022-08-02T05:16:46.747Z,15.90
2022-08-02T05:19:33.558Z,16.63
2022-08-02T05:22:20.006Z,17.17
2022-08-02T05:25:07.649Z,17.38
2022-08-02T05:27:57.815Z,17.45
2022-08-02T05:30:45.587Z,17.32
2022-08-02T05:33:32.378Z,17.56
2022-08-02T05:36:19.149Z,17.49
2022-08-02T05:39:10.811Z,17.80
2022-08-02T05:41:58.860Z,17.86
2022-08-02T05:44:46.995Z,17.95
2022-08-02T05:47:33.702Z,18.11
2022-08-02T05:50:20.907Z,18.48
2022-08-02T05:53:20.425Z,18.65
2022-08-02T05:56:18.563Z,18.54
2022-08-02T05:59:08.535Z,18.30
2022-08-02T06:01:59.259Z,18.57
2022-08-02T06:04:56.750Z,18.59
2022-08-02T06:07:45.301Z,18.40
2022-08-02T06:10:32.967Z,18.27
2022-08-02T06:13:21.585Z,18.14
2022-08-02T06:16:14.128Z,18.13
2022-08-02T06:19:04.298Z,18.08
2022-08-02T06:22:37.546Z,18.06
2022-08-02T06:25:00.858Z,18.31
2022-08-02T06:27:50.451Z,18.42
2022-08-02T06:30:37.009Z,18.64
2022-08-02T06:33:24.875Z,18.75
2022-08-02T06:36:23.226Z,18.93
2022-08-02T06:39:17.416Z,19.10
2022-08-02T06:42:12.473Z,19.19
2022-08-02T06:45:05.130Z,19.14
2022-08-02T06:47:52.064Z,19.34
2022-08-02T06:50:39.847Z,19.24
2022-08-02T06:53:27.639Z,19.41
2022-08-02T06:56:14.793Z,19.46
2022-08-02T06:59:05.650Z,19.50
2022-08-02T07:01:52.848Z,19.28
2022-08-02T07:04:39.480Z,19.33
2022-08-02T07:07:27.160Z,19.27
2022-08-02T07:10:16.257Z,19.36
2022-08-02T07:13:03.600Z,19.60
2022-08-02T07:15:50.021Z,19.64
2022-08-02T07:18:36.987Z,19.89
2022-08-02T07:21:55.872Z,19.98
2022-08-02T07:24:30.072Z,20.13
2022-08-02T07:27:18.287Z,20.15
2022-08-02T07:30:05.789Z,20.16
2022-08-02T07:32:52.656Z,20.33
2022-08-02T07:35:39.444Z,20.30
2022-08-02T07:38:29.182Z,20.40
2022-08-02T07:41:16.046Z,20.15
2022-08-02T07:44:04.291Z,20.13
2022-08-02T07:46:50.914Z,20.04
2022-08-02T07:49:37.689Z,20.09
2022-08-02T07:52:24.408Z,20.29
2022-08-02T07:55:12.367Z,20.40
2022-08-02T07:57:58.801Z,20.63
2022-08-02T08:00:47.318Z,20.87
2022-08-02T08:03:34.014Z,20.80
2022-08-02T08:06:20.616Z,20.93
2022-08-02T08:09:15.962Z,20.79
2022-08-02T08:12:02.800Z,21.07
2022-08-02T08:14:49.772Z,21.08
2022-08-02T08:17:38.703Z,21.06
2022-08-02T08:20:25.400Z,21.25
2022-08-02T08:23:11.898Z,21.36
2022-08-02T08:25:59.642Z,21.50
2022-08-02T08:28:47.504Z,21.45
2022-08-02T08:31:35.557Z,21.55
2022-08-02T08:34:27.303Z,21.46
2022-08-02T08:37:17.573Z,21.51
2022-08-02T08:40:05.948Z,21.59
2022-08-02T08:42:53.061Z,21.72
2022-08-02T08:45:39.563Z,21.74
2022-08-02T08:48:31.293Z,21.88
2022-08-02T08:51:23.398Z,22.19
2022-08-02T08:54:15.582Z,22.32
2022-08-02T08:57:05.325Z,22.41
2022-08-02T08:59:52.462Z,22.45
2022-08-02T09:02:39.098Z,22.56
2022-08-02T09:05:26.575Z,22.66
2022-08-02T09:08:16.937Z,22.74
2022-08-02T09:11:13.694Z,22.90
2022-08-02T09:14:02.251Z,22.96
2022-08-02T09:16:48.844Z,23.11
2022-08-02T09:19:37.132Z,23.03
2022-08-02T09:22:23.817Z,23.05
2022-08-02T09:25:16.954Z,23.07
2022-08-02T09:28:05.355Z,23.19
2022-08-02T09:30:52.224Z,23.26
2022-08-02T09:33:40.250Z,23.34
2022-08-02T09:36:28.644Z,23.56
2022-08-02T09:39:17.563Z,23.71
2022-08-02T09:42:11.580Z,23.93
2022-08-02T09:45:00.236Z,23.94
2022-08-02T09:47:50.607Z,23.73
2022-08-02T09:50:38.566Z,23.74
2022-08-02T09:53:25.258Z,23.72
2022-08-02T09:56:34.288Z,23.89
2022-08-02T09:59:21.676Z,23.92
2022-08-02T10:02:14.696Z,24.01
2022-08-02T10:05:04.854Z,23.82
2022-08-02T10:07:51.656Z,23.68
2022-08-02T10:10:39.264Z,23.96
2022-08-02T10:13:25.894Z,24.13
2022-08-02T10:16:14.597Z,24.03
2022-08-02T10:21:53.805Z,24.27
2022-08-02T10:24:48.291Z,24.26
2022-08-02T10:28:04.140Z,24.15
2022-08-02T10:30:46.898Z,24.51
2022-08-02T10:33:39.014Z,24.81
2022-08-02T10:36:28.416Z,24.95
2022-08-02T10:39:15.499Z,24.87
2022-08-02T10:42:02.133Z,24.93
2022-08-02T10:44:49.021Z,24.63
2022-08-02T10:47:35.797Z,24.30
2022-08-02T10:50:54.726Z,24.23
2022-08-02T10:53:41.276Z,24.36
2022-08-02T10:56:49.361Z,24.58
2022-08-02T10:59:37.627Z,24.63
2022-08-02T11:02:42.055Z,24.78
2022-08-02T11:05:42.659Z,24.81
2022-08-02T11:08:31.754Z,24.81
2022-08-02T11:11:20.505Z,24.99
2022-08-02T11:14:27.904Z,24.84
2022-08-02T11:17:16.752Z,24.88
2022-08-02T11:20:18.274Z,24.91
2022-08-02T11:23:44.102Z,24.95
2022-08-02T11:26:46.661Z,24.95
2022-08-02T11:29:39.090Z,24.95
2022-08-02T11:32:30.624Z,24.86
2022-08-02T11:35:18.492Z,24.95
2022-08-02T11:38:19.418Z,25.08
2022-08-02T11:41:10.300Z,25.03
2022-08-02T11:43:57.870Z,25.16
2022-08-02T11:46:44.925Z,25.30
2022-08-02T11:49:32.601Z,25.32
2022-08-02T11:52:20.254Z,25.19
2022-08-02T11:55:08.842Z,25.23
2022-08-02T11:58:03.075Z,25.30
2022-08-02T12:00:50.562Z,25.49
2022-08-02T12:03:38.926Z,25.56
2022-08-02T12:06:26.658Z,25.58
2022-08-02T12:09:18.825Z,25.62
2022-08-02T12:12:06.835Z,25.50
2022-08-02T12:14:55.154Z,25.55
2022-08-02T12:18:07.482Z,25.36
2022-08-02T12:20:54.406Z,25.44
2022-08-02T12:23:59.310Z,25.22
2022-08-02T12:26:49.053Z,25.46
2022-08-02T12:29:57.734Z,25.65
2022-08-02T12:32:46.996Z,25.70
2022-08-02T12:35:33.531Z,25.82
2022-08-02T12:38:20.644Z,25.89
2022-08-02T12:41:31.185Z,25.96
2022-08-02T12:44:20.022Z,25.80
2022-08-02T12:47:10.741Z,25.79
2022-08-02T12:50:14.338Z,25.95
2022-08-02T12:53:12.209Z,26.08
2022-08-02T12:56:03.775Z,26.14
2022-08-02T12:58:51.804Z,26.10
2022-08-02T13:01:38.903Z,26.24
2022-08-02T13:04:26.159Z,26.36
2022-08-02T13:07:14.607Z,26.30
2022-08-02T13:10:02.849Z,26.32
2022-08-02T13:12:50.310Z,26.41
2022-08-02T13:15:50.225Z,26.45
2022-08-02T13:18:37.968Z,26.48
2022-08-02T13:21:39.858Z,26.60
2022-08-02T13:24:40.641Z,26.67
2022-08-02T13:27:36.275Z,26.84
2022-08-02T13:30:23.247Z,26.85
2022-08-02T13:33:10.430Z,26.75
2022-08-02T13:35:58.189Z,26.78
2022-08-02T13:38:45.714Z,26.60
2022-08-02T13:41:35.424Z,26.60
2022-08-02T13:44:23.813Z,26.56
2022-08-02T13:47:12.037Z,26.58
2022-08-02T13:49:59.484Z,26.54
2022-08-02T13:52:47.213Z,26.65
2022-08-02T13:55:43.364Z,26.80
2022-08-02T13:58:32.025Z,26.58
2022-08-02T14:01:18.588Z,26.57
2022-08-02T14:04:08.801Z,26.65
2022-08-02T14:06:58.018Z,26.62
2022-08-02T14:09:45.884Z,26.58
2022-08-02T14:12:33.772Z,26.42
2022-08-02T14:15:25.663Z,26.56
2022-08-02T14:18:17.493Z,26.49
2022-08-02T14:21:04.157Z,26.68
2022-08-02T14:23:51.164Z,26.69
2022-08-02T14:26:38.166Z,26.64
2022-08-02T14:29:24.833Z,26.55
2022-08-02T14:32:13.176Z,26.56
2022-08-02T14:35:00.372Z,26.57
2022-08-02T14:37:47.143Z,26.64
2022-08-02T14:40:34.313Z,26.88
2022-08-02T14:43:34.713Z,26.69
2022-08-02T14:46:21.033Z,26.52
2022-08-02T14:49:11.361Z,26.60
2022-08-02T14:52:01.092Z,26.53
2022-08-02T14:54:48.089Z,26.40
2022-08-02T14:57:34.549Z,26.37
2022-08-02T15:00:21.260Z,26.58
2022-08-02T15:03:09.072Z,26.75
2022-08-02T15:05:57.197Z,26.64
2022-08-02T15:08:43.895Z,26.80
2022-08-02T15:11:30.811Z,26.67
2022-08-02T15:14:35.166Z,26.57
2022-08-02T15:17:21.899Z,26.52
2022-08-02T15:20:25.225Z,26.50
2022-08-02T15:23:14.661Z,26.27
2022-08-02T15:26:02.274Z,26.14
2022-08-02T15:28:55.406Z,26.34
2022-08-02T15:31:42.911Z,26.33
2022-08-02T15:34:29.531Z,26.11
2022-08-02T15:37:16.524Z,25.86
2022-08-02T15:40:05.106Z,25.71
2022-08-02T15:42:51.707Z,25.65
2022-08-02T15:45:38.488Z,25.76
2022-08-02T15:48:25.041Z,25.47
2022-08-02T15:51:11.818Z,25.37
2022-08-02T15:53:58.735Z,25.26
2022-08-02T15:56:47.194Z,25.17
2022-08-02T15:59:33.731Z,25.17
2022-08-02T16:02:20.666Z,25.13
2022-08-02T16:05:13.658Z,25.06
2022-08-02T16:08:01.194Z,24.94
2022-08-02T16:10:47.881Z,24.91
2022-08-02T16:13:53.465Z,24.78
2022-08-02T16:16:40.826Z,24.72
2022-08-02T16:19:47.774Z,24.69
2022-08-02T16:22:34.772Z,24.66
2022-08-02T16:25:21.576Z,24.51
2022-08-02T16:28:08.435Z,24.61
2022-08-02T16:31:10.408Z,24.59
2022-08-02T16:33:58.570Z,24.64
2022-08-02T16:36:45.986Z,24.78
2022-08-02T16:39:32.524Z,24.66
2022-08-02T16:42:25.166Z,24.71
2022-08-02T16:45:14.172Z,24.70
2022-08-02T16:48:05.459Z,24.69
2022-08-02T16:50:52.380Z,24.64
2022-08-02T16:53:59.194Z,24.63
2022-08-02T16:56:47.504Z,24.59
2022-08-02T16:59:42.646Z,24.57
2022-08-02T17:02:30.742Z,24.60
2022-08-02T17:05:18.990Z,24.52
2022-08-02T17:08:17.024Z,24.39
2022-08-02T17:11:04.432Z,24.36
2022-08-02T17:13:51.231Z,24.28
2022-08-02T17:16:38.893Z,24.21
2022-08-02T17:19:27.174Z,24.00
2022-08-02T17:22:15.625Z,23.82
2022-08-02T17:25:04.534Z,23.67
2022-08-02T17:27:55.684Z,23.58
2022-08-02T17:30:42.865Z,23.47
2022-08-02T17:33:31.711Z,23.34
2022-08-02T17:36:18.732Z,23.23
2022-08-02T17:39:08.972Z,23.16
2022-08-02T17:41:55.517Z,23.10
2022-08-02T17:44:42.177Z,23.04
2022-08-02T17:47:42.221Z,22.96
2022-08-02T17:50:29.307Z,22.89
2022-08-02T17:53:17.561Z,22.67
2022-08-02T17:56:06.284Z,22.67
2022-08-02T17:58:54.022Z,22.52
2022-08-02T18:01:42.171Z,22.41
2022-08-02T18:04:40.850Z,22.27
2022-08-02T18:07:30.104Z,22.14
2022-08-02T18:10:34.009Z,22.06
2022-08-02T18:13:28.430Z,21.95
2022-08-02T18:16:21.763Z,21.87
2022-08-02T18:19:16.588Z,21.76
2022-08-02T18:22:04.268Z,21.74
2022-08-02T18:24:52.345Z,21.65
2022-08-02T18:27:39.324Z,21.62
2022-08-02T18:30:28.131Z,21.51
2022-08-02T18:33:58.192Z,21.30
2022-08-02T18:36:24.652Z,21.30
2022-08-02T18:39:11.837Z,21.07
2022-08-02T18:41:58.751Z,20.94
2022-08-02T18:44:48.567Z,20.86
2022-08-02T18:47:36.946Z,20.74
2022-08-02T18:50:23.948Z,20.74
2022-08-02T18:53:39.322Z,20.69
2022-08-02T18:56:25.868Z,20.57
2022-08-02T18:59:13.119Z,20.46
2022-08-02T19:02:12.681Z,20.34
2022-08-02T19:05:16.338Z,20.34
2022-08-02T19:08:09.149Z,20.32
2022-08-02T19:10:57.775Z,20.19
2022-08-02T19:13:49.449Z,20.04
2022-08-02T19:16:37.599Z,19.96
2022-08-02T19:19:28.731Z,19.95
2022-08-02T19:22:20.346Z,19.98
2022-08-02T19:25:14.178Z,19.88
2022-08-02T19:28:02.798Z,19.77
2022-08-02T19:30:49.623Z,19.66
2022-08-02T19:34:05.841Z,19.56
2022-08-02T19:36:46.844Z,19.55
2022-08-02T19:39:40.095Z,19.46
2022-08-02T19:42:32.316Z,19.39
2022-08-02T19:45:49.132Z,19.30
2022-08-02T19:48:37.432Z,19.24
2022-08-02T19:51:55.138Z,19.36
2022-08-02T19:54:35.830Z,19.37
2022-08-02T19:57:42.307Z,19.30
2022-08-02T20:00:29.036Z,19.12
2022-08-02T20:03:18.129Z,18.99
2022-08-02T20:06:05.077Z,18.88
2022-08-02T20:08:57.089Z,18.83
2022-08-02T20:11:46.437Z,18.77
2022-08-02T20:14:50.686Z,18.75
2022-08-02T20:17:39.085Z,18.71
2022-08-02T20:20:37.200Z,18.63
2022-08-02T20:23:33.615Z,18.57
2022-08-02T20:26:21.341Z,18.47
2022-08-02T20:29:09.177Z,18.40
2022-08-02T20:31:57.062Z,18.38
2022-08-02T20:34:48.677Z,18.36
2022-08-02T20:38:00.429Z,18.27
2022-08-02T20:40:42.816Z,18.13
2022-08-02T20:43:35.625Z,18.10
2022-08-02T20:46:22.849Z,18.05
2022-08-02T20:49:23.063Z,18.05
2022-08-02T20:52:23.296Z,18.04
2022-08-02T20:55:17.016Z,17.94
2022-08-02T20:58:05.669Z,17.86
2022-08-02T21:00:53.985Z,17.82
2022-08-02T21:03:40.432Z,17.76
2022-08-02T21:06:29.944Z,17.79
2022-08-02T21:09:16.917Z,17.78
2022-08-02T21:12:03.469Z,17.71
2022-08-02T21:14:52.447Z,17.66
2022-08-02T21:17:44.314Z,17.61
2022-08-02T21:20:38.130Z,17.54
2022-08-02T21:23:26.130Z,17.54
2022-08-02T21:26:12.661Z,17.46
2022-08-02T21:29:00.717Z,17.47
2022-08-02T21:31:51.130Z,17.41
2022-08-02T21:34:37.845Z,17.36
2022-08-02T21:37:33.098Z,17.29
2022-08-02T21:40:32.898Z,17.23
2022-08-02T21:43:20.097Z,17.20
2022-08-02T21:46:21.974Z,17.20
2022-08-02T21:49:11.279Z,17.23
2022-08-02T21:51:59.507Z,17.27
2022-08-02T21:54:47.807Z,17.30
2022-08-02T21:57:36.021Z,17.29
2022-08-02T22:00:28.788Z,17.34
2022-08-02T22:03:22.408Z,17.37
2022-08-02T22:06:09.509Z,17.37
2022-08-02T22:08:56.986Z,17.32
2022-08-02T22:11:43.815Z,17.29
2022-08-02T22:14:34.374Z,17.35
2022-08-02T22:17:51.687Z,17.31
2022-08-02T22:20:30.826Z,17.30
2022-08-02T22:23:22.647Z,17.26
2022-08-02T22:26:24.159Z,17.15
2022-08-02T22:29:11.020Z,17.10
2022-08-02T22:31:59.089Z,17.06
2022-08-02T22:34:51.813Z,17.06
2022-08-02T22:38:14.512Z,17.11
2022-08-02T22:40:45.698Z,17.06
2022-08-02T22:43:33.727Z,17.05
2022-08-02T22:46:26.446Z,17.09
2022-08-02T22:49:36.848Z,17.08
2022-08-02T22:52:21.321Z,17.06
2022-08-02T22:55:08.816Z,17.08
2022-08-02T22:57:56.764Z,17.07
2022-08-02T23:00:44.404Z,17.04
2022-08-02T23:03:31.316Z,16.97
2022-08-02T23:06:22.660Z,16.95
2022-08-02T23:09:09.257Z,16.93
2022-08-02T23:11:57.063Z,16.91
2022-08-02T23:14:43.785Z,16.93
2022-08-02T23:17:47.914Z,16.95
2022-08-02T23:20:35.121Z,16.97
2022-08-02T23:23:24.128Z,16.98
2022-08-02T23:26:11.049Z,17.00
2022-08-02T23:28:57.749Z,17.02
2022-08-02T23:31:44.497Z,17.04
2022-08-02T23:34:31.821Z,17.04
2022-08-02T23:37:18.514Z,17.07
2022-08-02T23:40:09.423Z,17.03
2022-08-02T23:42:56.373Z,17.03
2022-08-02T23:45:44.358Z,16.99
2022-08-02T23:48:32.091Z,16.98
2022-08-02T23:51:22.081Z,16.97
2022-08-02T23:54:09.231Z,16.93
2022-08-02T23:56:57.703Z,17.00
2022-08-02T23:59:46.422Z,16.95
